Del Bonita, Montana
Current Conditions -  °F | °C
As of 3:56 AM on Sunday 21 Dec 2014 (Local Time) from KCTB Reporting Station
Clear Clear  
Wind Chill: 28°   Ceiling: Unl
Heat Index: 39°   Visibility: 10mi
Dew Point: 31°   Wind: 26mph
Humidity: 73%   Direction: 260°W
Pressure: 29.28"   Gusts: 31mph
Location:  48.808°N, 112.487°W
Report Text: KCTB 211056Z AUTO 26023G27KT 10SM CLR 04/M01 A2928 RMK AO2 PK WND 25030/1035 WSHFT 1012 SLP931 T00391006
Loading
Personal Weather Stations






























Interactive Weather Map New forecast layout! Learn more

10-Day Weather Forecast

Advertisements
Track Severe Weather on mobile